sensor_id;sensor_type;location;lat;lon;timestamp;P1;durP1;ratioP1;P2;durP2;ratioP2
4646;SDS011;2336;47.822;7.564;2022-12-18T04:33:31;51.33;;;21.23;;
4646;SDS011;2336;47.822;7.564;2022-12-18T04:35:58;58.83;;;21.58;;
4646;SDS011;2336;47.822;7.564;2022-12-18T04:38:25;70.40;;;22.15;;
4646;SDS011;2336;47.822;7.564;2022-12-18T04:40:52;59.67;;;20.83;;
4646;SDS011;2336;47.822;7.564;2022-12-18T04:43:19;46.00;;;19.00;;
4646;SDS011;2336;47.822;7.564;2022-12-18T04:45:46;44.90;;;18.55;;
4646;SDS011;2336;47.822;7.564;2022-12-18T04:48:12;46.38;;;18.98;;
4646;SDS011;2336;47.822;7.564;2022-12-18T04:50:41;31.65;;;17.13;;
4646;SDS011;2336;47.822;7.564;2022-12-18T04:53:07;41.42;;;20.35;;
4646;SDS011;2336;47.822;7.564;2022-12-18T04:55:34;46.97;;;25.23;;
4646;SDS011;2336;47.822;7.564;2022-12-18T04:58:01;60.22;;;18.35;;
4646;SDS011;2336;47.822;7.564;2022-12-18T05:00:28;31.50;;;16.00;;
4646;SDS011;2336;47.822;7.564;2022-12-18T05:02:55;65.18;;;32.15;;
4646;SDS011;2336;47.822;7.564;2022-12-18T05:05:21;49.28;;;29.67;;
4646;SDS011;2336;47.822;7.564;2022-12-18T05:07:49;29.63;;;17.17;;
4646;SDS011;2336;47.822;7.564;2022-12-18T05:10:16;38.88;;;19.45;;
4646;SDS011;2336;47.822;7.564;2022-12-18T05:12:43;75.15;;;19.73;;
4646;SDS011;2336;47.822;7.564;2022-12-18T05:15:24;76.38;;;22.00;;
4646;SDS011;2336;47.822;7.564;2022-12-18T05:17:52;25.33;;;14.95;;
4646;SDS011;2336;47.822;7.564;2022-12-18T05:20:19;49.78;;;16.73;;
4646;SDS011;2336;47.822;7.564;2022-12-18T05:22:46;51.38;;;17.00;;
4646;SDS011;2336;47.822;7.564;2022-12-18T05:25:14;29.17;;;16.17;;
4646;SDS011;2336;47.822;7.564;2022-12-18T05:27:41;22.95;;;14.27;;
4646;SDS011;2336;47.822;7.564;2022-12-18T05:30:08;26.67;;;14.35;;
4646;SDS011;2336;47.822;7.564;2022-12-18T05:32:36;21.85;;;13.10;;
4646;SDS011;2336;47.822;7.564;2022-12-18T05:35:03;20.20;;;13.13;;
4646;SDS011;2336;47.822;7.564;2022-12-18T05:37:32;23.52;;;13.85;;
4646;SDS011;2336;47.822;7.564;2022-12-18T05:39:59;18.70;;;12.32;;
4646;SDS011;2336;47.822;7.564;2022-12-18T05:42:27;20.63;;;13.30;;
4646;SDS011;2336;47.822;7.564;2022-12-18T05:44:54;20.88;;;13.57;;
4646;SDS011;2336;47.822;7.564;2022-12-18T05:47:21;33.63;;;15.18;;
4646;SDS011;2336;47.822;7.564;2022-12-18T05:49:47;19.95;;;12.00;;
4646;SDS011;2336;47.822;7.564;2022-12-18T05:52:14;22.00;;;13.55;;
4646;SDS011;2336;47.822;7.564;2022-12-18T05:54:41;34.67;;;15.88;;
4646;SDS011;2336;47.822;7.564;2022-12-18T05:57:08;29.90;;;15.20;;
4646;SDS011;2336;47.822;7.564;2022-12-18T15:32:41;42.03;;;24.40;;
4646;SDS011;2336;47.822;7.564;2022-12-18T15:35:09;44.22;;;28.02;;
4646;SDS011;2336;47.822;7.564;2022-12-18T15:37:40;35.25;;;23.75;;
4646;SDS011;2336;47.822;7.564;2022-12-18T15:40:08;40.47;;;26.15;;
4646;SDS011;2336;47.822;7.564;2022-12-18T15:42:39;38.45;;;26.35;;
4646;SDS011;2336;47.822;7.564;2022-12-18T15:45:23;40.90;;;27.70;;
4646;SDS011;2336;47.822;7.564;2022-12-18T15:47:52;33.58;;;22.10;;
4646;SDS011;2336;47.822;7.564;2022-12-18T15:50:18;32.88;;;22.60;;
4646;SDS011;2336;47.822;7.564;2022-12-18T15:52:46;35.80;;;24.50;;
4646;SDS011;2336;47.822;7.564;2022-12-18T15:55:16;38.63;;;23.00;;
4646;SDS011;2336;47.822;7.564;2022-12-18T15:58:02;29.35;;;20.77;;
4646;SDS011;2336;47.822;7.564;2022-12-18T16:00:29;33.35;;;22.02;;
4646;SDS011;2336;47.822;7.564;2022-12-18T16:02:58;29.13;;;22.17;;
4646;SDS011;2336;47.822;7.564;2022-12-18T16:05:26;33.05;;;22.20;;
4646;SDS011;2336;47.822;7.564;2022-12-18T16:07:53;29.05;;;20.98;;
4646;SDS011;2336;47.822;7.564;2022-12-18T16:10:20;34.92;;;23.20;;
4646;SDS011;2336;47.822;7.564;2022-12-18T16:12:48;32.03;;;22.17;;
4646;SDS011;2336;47.822;7.564;2022-12-18T16:15:15;31.85;;;22.27;;
4646;SDS011;2336;47.822;7.564;2022-12-18T16:17:43;55.58;;;34.13;;
4646;SDS011;2336;47.822;7.564;2022-12-18T16:20:13;56.83;;;34.95;;
4646;SDS011;2336;47.822;7.564;2022-12-18T16:22:41;49.00;;;31.55;;
4646;SDS011;2336;47.822;7.564;2022-12-18T16:25:11;44.20;;;31.60;;
4646;SDS011;2336;47.822;7.564;2022-12-18T16:27:43;42.17;;;32.45;;
4646;SDS011;2336;47.822;7.564;2022-12-18T16:30:12;31.90;;;22.15;;
4646;SDS011;2336;47.822;7.564;2022-12-18T16:32:40;32.95;;;22.80;;
4646;SDS011;2336;47.822;7.564;2022-12-18T16:35:08;30.38;;;23.48;;
4646;SDS011;2336;47.822;7.564;2022-12-18T16:37:38;31.77;;;23.70;;
4646;SDS011;2336;47.822;7.564;2022-12-18T16:40:06;29.80;;;22.00;;
4646;SDS011;2336;47.822;7.564;2022-12-18T16:42:34;31.30;;;23.13;;
4646;SDS011;2336;47.822;7.564;2022-12-18T16:45:02;28.02;;;21.48;;
4646;SDS011;2336;47.822;7.564;2022-12-18T16:47:30;29.85;;;21.02;;
4646;SDS011;2336;47.822;7.564;2022-12-18T16:49:56;37.17;;;24.00;;
4646;SDS011;2336;47.822;7.564;2022-12-18T16:52:23;35.85;;;23.10;;
4646;SDS011;2336;47.822;7.564;2022-12-18T16:54:52;30.40;;;20.95;;
4646;SDS011;2336;47.822;7.564;2022-12-18T16:57:19;28.58;;;20.92;;
4646;SDS011;2336;47.822;7.564;2022-12-18T16:59:46;32.63;;;23.65;;
4646;SDS011;2336;47.822;7.564;2022-12-18T17:02:14;40.35;;;24.40;;
4646;SDS011;2336;47.822;7.564;2022-12-18T17:04:42;32.50;;;22.73;;
4646;SDS011;2336;47.822;7.564;2022-12-18T17:07:10;30.65;;;22.00;;
4646;SDS011;2336;47.822;7.564;2022-12-18T17:09:37;29.90;;;21.58;;
4646;SDS011;2336;47.822;7.564;2022-12-18T17:12:06;28.45;;;22.08;;
4646;SDS011;2336;47.822;7.564;2022-12-18T17:14:33;31.67;;;23.15;;
4646;SDS011;2336;47.822;7.564;2022-12-18T17:17:01;30.30;;;24.60;;
4646;SDS011;2336;47.822;7.564;2022-12-18T17:19:28;32.20;;;27.13;;
4646;SDS011;2336;47.822;7.564;2022-12-18T17:21:55;42.20;;;31.90;;
4646;SDS011;2336;47.822;7.564;2022-12-18T17:24:22;37.08;;;28.55;;
4646;SDS011;2336;47.822;7.564;2022-12-18T17:26:49;35.53;;;28.13;;
4646;SDS011;2336;47.822;7.564;2022-12-18T17:29:17;32.35;;;25.52;;
4646;SDS011;2336;47.822;7.564;2022-12-18T17:31:45;36.75;;;27.42;;
4646;SDS011;2336;47.822;7.564;2022-12-18T17:34:13;32.35;;;24.58;;
4646;SDS011;2336;47.822;7.564;2022-12-18T17:36:40;32.30;;;21.63;;
4646;SDS011;2336;47.822;7.564;2022-12-18T17:39:07;26.60;;;21.63;;
4646;SDS011;2336;47.822;7.564;2022-12-18T17:41:34;32.83;;;24.77;;
4646;SDS011;2336;47.822;7.564;2022-12-18T17:44:01;30.10;;;22.90;;
4646;SDS011;2336;47.822;7.564;2022-12-18T17:46:32;27.30;;;21.58;;
4646;SDS011;2336;47.822;7.564;2022-12-18T17:48:59;37.20;;;27.45;;
4646;SDS011;2336;47.822;7.564;2022-12-18T17:51:27;30.90;;;23.67;;
4646;SDS011;2336;47.822;7.564;2022-12-18T17:53:55;30.40;;;22.40;;
4646;SDS011;2336;47.822;7.564;2022-12-18T17:56:22;32.08;;;22.23;;
4646;SDS011;2336;47.822;7.564;2022-12-18T17:58:50;28.80;;;21.38;;
4646;SDS011;2336;47.822;7.564;2022-12-18T18:01:18;50.67;;;34.70;;
4646;SDS011;2336;47.822;7.564;2022-12-18T18:03:47;36.97;;;27.65;;
4646;SDS011;2336;47.822;7.564;2022-12-18T18:06:14;28.55;;;20.85;;
4646;SDS011;2336;47.822;7.564;2022-12-18T18:08:41;25.92;;;20.27;;
4646;SDS011;2336;47.822;7.564;2022-12-18T18:11:09;31.63;;;24.20;;
4646;SDS011;2336;47.822;7.564;2022-12-18T18:13:55;60.95;;;41.03;;
4646;SDS011;2336;47.822;7.564;2022-12-18T18:16:30;47.97;;;29.88;;
4646;SDS011;2336;47.822;7.564;2022-12-18T18:19:02;34.17;;;22.50;;
4646;SDS011;2336;47.822;7.564;2022-12-18T18:21:32;35.03;;;24.48;;
4646;SDS011;2336;47.822;7.564;2022-12-18T18:23:59;39.03;;;26.80;;
4646;SDS011;2336;47.822;7.564;2022-12-18T18:26:27;51.17;;;34.10;;
4646;SDS011;2336;47.822;7.564;2022-12-18T18:28:55;36.30;;;25.60;;
4646;SDS011;2336;47.822;7.564;2022-12-18T18:31:23;31.88;;;22.65;;
4646;SDS011;2336;47.822;7.564;2022-12-18T18:33:50;31.10;;;22.92;;
4646;SDS011;2336;47.822;7.564;2022-12-18T18:36:18;29.25;;;22.70;;
4646;SDS011;2336;47.822;7.564;2022-12-18T18:38:45;30.20;;;22.65;;
4646;SDS011;2336;47.822;7.564;2022-12-18T18:41:12;28.58;;;22.08;;
4646;SDS011;2336;47.822;7.564;2022-12-18T18:43:40;28.67;;;21.55;;
4646;SDS011;2336;47.822;7.564;2022-12-18T18:46:09;27.90;;;21.52;;
4646;SDS011;2336;47.822;7.564;2022-12-18T18:48:37;27.35;;;21.42;;
4646;SDS011;2336;47.822;7.564;2022-12-18T18:51:05;27.08;;;21.58;;
4646;SDS011;2336;47.822;7.564;2022-12-18T18:53:36;28.40;;;20.98;;
4646;SDS011;2336;47.822;7.564;2022-12-18T18:56:04;26.20;;;20.80;;
4646;SDS011;2336;47.822;7.564;2022-12-18T18:58:32;27.08;;;21.63;;
4646;SDS011;2336;47.822;7.564;2022-12-18T19:01:00;31.02;;;22.30;;
4646;SDS011;2336;47.822;7.564;2022-12-18T19:03:28;29.42;;;22.27;;
4646;SDS011;2336;47.822;7.564;2022-12-18T19:05:56;31.00;;;22.27;;
4646;SDS011;2336;47.822;7.564;2022-12-18T19:08:25;27.98;;;21.60;;
4646;SDS011;2336;47.822;7.564;2022-12-18T19:10:55;25.10;;;19.95;;
4646;SDS011;2336;47.822;7.564;2022-12-18T19:13:24;26.42;;;21.20;;
4646;SDS011;2336;47.822;7.564;2022-12-18T19:15:52;28.98;;;21.23;;
4646;SDS011;2336;47.822;7.564;2022-12-18T19:18:20;25.65;;;18.83;;
4646;SDS011;2336;47.822;7.564;2022-12-18T19:20:55;25.83;;;19.02;;
4646;SDS011;2336;47.822;7.564;2022-12-18T19:23:23;26.33;;;19.42;;
4646;SDS011;2336;47.822;7.564;2022-12-18T19:25:50;34.08;;;26.33;;
4646;SDS011;2336;47.822;7.564;2022-12-18T19:28:18;35.25;;;26.85;;
4646;SDS011;2336;47.822;7.564;2022-12-18T19:30:50;34.70;;;26.23;;
4646;SDS011;2336;47.822;7.564;2022-12-18T19:33:18;34.47;;;24.70;;
4646;SDS011;2336;47.822;7.564;2022-12-18T19:35:45;35.25;;;25.10;;
4646;SDS011;2336;47.822;7.564;2022-12-18T19:38:11;36.28;;;26.05;;
4646;SDS011;2336;47.822;7.564;2022-12-18T19:40:39;33.97;;;25.83;;
4646;SDS011;2336;47.822;7.564;2022-12-18T19:43:06;34.53;;;25.45;;
4646;SDS011;2336;47.822;7.564;2022-12-18T19:45:35;32.13;;;24.33;;
4646;SDS011;2336;47.822;7.564;2022-12-18T19:48:02;32.28;;;23.70;;
4646;SDS011;2336;47.822;7.564;2022-12-18T19:50:30;27.38;;;21.67;;
4646;SDS011;2336;47.822;7.564;2022-12-18T19:52:57;47.67;;;30.92;;
4646;SDS011;2336;47.822;7.564;2022-12-18T19:55:24;38.65;;;27.77;;
4646;SDS011;2336;47.822;7.564;2022-12-18T19:57:51;36.63;;;27.48;;
4646;SDS011;2336;47.822;7.564;2022-12-18T20:00:18;39.33;;;28.40;;
4646;SDS011;2336;47.822;7.564;2022-12-18T20:02:46;30.60;;;23.35;;
4646;SDS011;2336;47.822;7.564;2022-12-18T20:05:13;29.40;;;22.85;;
4646;SDS011;2336;47.822;7.564;2022-12-18T20:07:39;30.45;;;22.40;;
4646;SDS011;2336;47.822;7.564;2022-12-18T20:10:07;32.55;;;23.90;;
4646;SDS011;2336;47.822;7.564;2022-12-18T20:12:38;31.23;;;23.85;;
4646;SDS011;2336;47.822;7.564;2022-12-18T20:15:06;29.13;;;23.27;;
4646;SDS011;2336;47.822;7.564;2022-12-18T20:17:33;32.42;;;24.52;;
4646;SDS011;2336;47.822;7.564;2022-12-18T20:20:02;30.33;;;24.20;;
4646;SDS011;2336;47.822;7.564;2022-12-18T20:22:29;31.45;;;23.80;;
4646;SDS011;2336;47.822;7.564;2022-12-18T20:24:56;31.13;;;24.00;;
4646;SDS011;2336;47.822;7.564;2022-12-18T20:27:23;31.35;;;22.30;;
4646;SDS011;2336;47.822;7.564;2022-12-18T20:29:50;29.27;;;23.25;;
4646;SDS011;2336;47.822;7.564;2022-12-18T20:32:17;28.40;;;22.80;;
4646;SDS011;2336;47.822;7.564;2022-12-18T20:34:44;29.23;;;22.88;;
4646;SDS011;2336;47.822;7.564;2022-12-18T20:37:12;28.67;;;22.85;;
4646;SDS011;2336;47.822;7.564;2022-12-18T20:39:39;33.75;;;25.10;;
4646;SDS011;2336;47.822;7.564;2022-12-18T20:42:06;34.13;;;24.65;;
4646;SDS011;2336;47.822;7.564;2022-12-18T20:44:33;34.65;;;24.83;;
4646;SDS011;2336;47.822;7.564;2022-12-18T20:47:00;31.83;;;23.67;;
4646;SDS011;2336;47.822;7.564;2022-12-18T20:49:27;31.27;;;23.58;;
4646;SDS011;2336;47.822;7.564;2022-12-18T20:51:55;33.15;;;24.10;;
4646;SDS011;2336;47.822;7.564;2022-12-18T20:54:25;33.38;;;25.58;;
4646;SDS011;2336;47.822;7.564;2022-12-18T20:56:52;33.17;;;26.13;;
4646;SDS011;2336;47.822;7.564;2022-12-18T20:59:19;32.38;;;24.60;;
4646;SDS011;2336;47.822;7.564;2022-12-18T21:01:47;30.42;;;24.58;;
4646;SDS011;2336;47.822;7.564;2022-12-18T21:04:14;32.42;;;24.73;;
4646;SDS011;2336;47.822;7.564;2022-12-18T21:06:41;30.23;;;23.35;;
4646;SDS011;2336;47.822;7.564;2022-12-18T21:09:08;38.17;;;27.20;;
4646;SDS011;2336;47.822;7.564;2022-12-18T21:11:36;34.55;;;26.08;;
4646;SDS011;2336;47.822;7.564;2022-12-18T21:14:21;33.97;;;26.38;;
4646;SDS011;2336;47.822;7.564;2022-12-18T21:16:49;35.67;;;26.15;;
4646;SDS011;2336;47.822;7.564;2022-12-18T21:19:20;35.80;;;26.10;;
4646;SDS011;2336;47.822;7.564;2022-12-18T21:21:49;31.80;;;23.45;;
4646;SDS011;2336;47.822;7.564;2022-12-18T21:24:16;33.20;;;24.75;;
4646;SDS011;2336;47.822;7.564;2022-12-18T21:26:45;33.65;;;25.77;;
4646;SDS011;2336;47.822;7.564;2022-12-18T21:29:14;32.70;;;25.58;;
